Pasrur Weather



Pasrur's Current Weather

Temprature 23.07o thunderstorm with light rain

thunderstorm with light rain

Rain: 0 %

Min Temprature22o
Max Temprature24o
Humidity73
Wind Speed9.3 m/h
Sun Rise04:58:47
Sun Set18:57:44
Current Time: 24-May-2019 04:27:48
Lat/Lon: 32.27, 74.67




Pasrur's Geo Location



Pasrur's Weather Forecast

Time Overall Temp Min Temp Max Temp Humidity Wind Speed Rain
24-May-2019 (Fri)
05:00:00 light rain 23.830 23.830 26.562 48 2.45 m/h 131 %
08:00:00 overcast clouds 28.300 28.300 30.350 31 2.96 m/h 0 %
11:00:00 broken clouds 33.190 33.190 34.550 21 2.85 m/h 0 %
14:00:00 clear sky 36.670 36.670 37.350 18 1.69 m/h 0 %
17:00:00 clear sky 36.950 36.950 36.950 18 3.48 m/h 0 %
20:00:00 light rain 31.289 31.289 31.289 28 4.44 m/h 31 %
23:00:00 light rain 27.589 27.589 27.589 39 4.47 m/h 169 %
25-May-2019 (Sat)
02:00:00 overcast clouds 27.089 27.089 27.089 45 2.33 m/h 0 %
05:00:00 overcast clouds 26.420 26.420 26.420 40 1.03 m/h 0 %
08:00:00 clear sky 30.638 30.638 30.638 28 1.53 m/h 0 %
11:00:00 clear sky 35.782 35.782 35.782 19 1.52 m/h 0 %
14:00:00 clear sky 37.480 37.480 37.480 16 3 m/h 0 %
17:00:00 clear sky 37.865 37.865 37.865 15 3.94 m/h 0 %
20:00:00 clear sky 33.538 33.538 33.538 21 3.21 m/h 0 %
23:00:00 clear sky 31.055 31.055 31.055 24 2.26 m/h 0 %
26-May-2019 (Sun)
02:00:00 clear sky 28.768 28.768 28.768 26 2.25 m/h 0 %
05:00:00 clear sky 27.050 27.050 27.050 27 1.79 m/h 0 %
08:00:00 clear sky 31.850 31.850 31.850 22 2.27 m/h 0 %
11:00:00 clear sky 38.479 38.479 38.479 14 0.93 m/h 0 %
14:00:00 clear sky 40.350 40.350 40.350 11 3.28 m/h 0 %
17:00:00 clear sky 40.401 40.401 40.401 11 4.09 m/h 0 %
20:00:00 clear sky 35.050 35.050 35.050 16 3.58 m/h 0 %
23:00:00 clear sky 31.474 31.474 31.474 15 3.07 m/h 0 %
27-May-2019 (Mon)
02:00:00 clear sky 29.950 29.950 29.950 18 1.79 m/h 0 %
05:00:00 clear sky 28.152 28.152 28.152 22 2.36 m/h 0 %
08:00:00 clear sky 33.259 33.259 33.259 15 2.91 m/h 0 %
11:00:00 clear sky 40.144 40.144 40.144 6 1.45 m/h 0 %
14:00:00 clear sky 41.886 41.886 41.886 6 4.46 m/h 0 %
17:00:00 clear sky 40.813 40.813 40.813 7 5.62 m/h 0 %
20:00:00 clear sky 35.287 35.287 35.287 11 3.59 m/h 0 %
23:00:00 clear sky 31.770 31.770 31.770 12 2.93 m/h 0 %
28-May-2019 (Tue)
02:00:00 clear sky 28.980 28.980 28.980 15 1.63 m/h 0 %
05:00:00 clear sky 27.137 27.137 27.137 17 1.9 m/h 0 %
08:00:00 clear sky 32.826 32.826 32.826 11 3.32 m/h 0 %
11:00:00 clear sky 40.155 40.155 40.155 6 0.39 m/h 0 %
14:00:00 clear sky 41.751 41.751 41.751 6 3.52 m/h 0 %
17:00:00 clear sky 41.550 41.550 41.550 7 4.26 m/h 0 %
20:00:00 clear sky 36.250 36.250 36.250 11 3.06 m/h 0 %
23:00:00 clear sky 32.815 32.815 32.815 13 2.94 m/h 0 %
29-May-2019 (Wed)
02:00:00 clear sky 30.022 30.022 30.022 15 2.21 m/h 0 %

Famous Cities (60)